sensor_id;sensor_type;location;lat;lon;timestamp;P1;durP1;ratioP1;P2;durP2;ratioP2
51692;SDS011;37777;53.066;21.638;2022-08-19T00:00:47;18.80;;;13.35;;
51692;SDS011;37777;53.066;21.638;2022-08-19T00:07:50;26.10;;;13.77;;
51692;SDS011;37777;53.066;21.638;2022-08-19T00:14:52;24.77;;;13.50;;
51692;SDS011;37777;53.066;21.638;2022-08-19T00:21:55;17.20;;;13.50;;
51692;SDS011;37777;53.066;21.638;2022-08-19T00:28:57;24.45;;;14.32;;
51692;SDS011;37777;53.066;21.638;2022-08-19T00:36:03;23.67;;;13.55;;
51692;SDS011;37777;53.066;21.638;2022-08-19T00:43:10;29.52;;;15.30;;
51692;SDS011;37777;53.066;21.638;2022-08-19T00:50:13;21.67;;;13.18;;
51692;SDS011;37777;53.066;21.638;2022-08-19T00:57:17;25.13;;;14.68;;
51692;SDS011;37777;53.066;21.638;2022-08-19T01:04:20;27.38;;;15.23;;
51692;SDS011;37777;53.066;21.638;2022-08-19T01:11:22;21.10;;;13.68;;
51692;SDS011;37777;53.066;21.638;2022-08-19T01:18:24;28.80;;;16.13;;
51692;SDS011;37777;53.066;21.638;2022-08-19T01:25:32;22.55;;;14.57;;
51692;SDS011;37777;53.066;21.638;2022-08-19T01:32:34;20.98;;;14.50;;
51692;SDS011;37777;53.066;21.638;2022-08-19T01:39:37;25.00;;;15.57;;
51692;SDS011;37777;53.066;21.638;2022-08-19T01:46:39;26.38;;;15.70;;
51692;SDS011;37777;53.066;21.638;2022-08-19T01:53:41;26.30;;;16.45;;
51692;SDS011;37777;53.066;21.638;2022-08-19T02:00:44;23.02;;;14.57;;
51692;SDS011;37777;53.066;21.638;2022-08-19T02:07:47;24.08;;;14.38;;
51692;SDS011;37777;53.066;21.638;2022-08-19T02:14:49;23.45;;;14.93;;
51692;SDS011;37777;53.066;21.638;2022-08-19T02:21:51;20.63;;;14.63;;
51692;SDS011;37777;53.066;21.638;2022-08-19T02:28:53;22.40;;;14.15;;
51692;SDS011;37777;53.066;21.638;2022-08-19T02:35:56;24.98;;;15.50;;
51692;SDS011;37777;53.066;21.638;2022-08-19T02:42:58;24.70;;;15.02;;
51692;SDS011;37777;53.066;21.638;2022-08-19T02:50:01;22.25;;;17.13;;
51692;SDS011;37777;53.066;21.638;2022-08-19T02:57:03;25.10;;;15.55;;
51692;SDS011;37777;53.066;21.638;2022-08-19T03:04:05;22.00;;;14.40;;
51692;SDS011;37777;53.066;21.638;2022-08-19T03:11:12;23.27;;;13.35;;
51692;SDS011;37777;53.066;21.638;2022-08-19T03:18:15;21.55;;;13.85;;
51692;SDS011;37777;53.066;21.638;2022-08-19T03:25:18;24.63;;;14.40;;
51692;SDS011;37777;53.066;21.638;2022-08-19T03:32:20;19.75;;;14.55;;
51692;SDS011;37777;53.066;21.638;2022-08-19T03:39:36;20.55;;;15.40;;
51692;SDS011;37777;53.066;21.638;2022-08-19T03:46:38;21.30;;;16.73;;
51692;SDS011;37777;53.066;21.638;2022-08-19T03:53:45;24.55;;;14.80;;
51692;SDS011;37777;53.066;21.638;2022-08-19T04:00:47;23.27;;;15.93;;
51692;SDS011;37777;53.066;21.638;2022-08-19T04:07:49;29.58;;;16.70;;
51692;SDS011;37777;53.066;21.638;2022-08-19T04:14:51;25.77;;;16.52;;
51692;SDS011;37777;53.066;21.638;2022-08-19T04:21:53;26.02;;;16.98;;
51692;SDS011;37777;53.066;21.638;2022-08-19T04:28:56;24.80;;;15.52;;
51692;SDS011;37777;53.066;21.638;2022-08-19T04:35:58;28.85;;;15.75;;
51692;SDS011;37777;53.066;21.638;2022-08-19T04:43:00;29.38;;;15.93;;
51692;SDS011;37777;53.066;21.638;2022-08-19T04:50:02;19.25;;;15.10;;
51692;SDS011;37777;53.066;21.638;2022-08-19T04:57:05;28.77;;;15.00;;
51692;SDS011;37777;53.066;21.638;2022-08-19T05:04:08;21.27;;;15.15;;
51692;SDS011;37777;53.066;21.638;2022-08-19T05:11:12;23.77;;;14.52;;
51692;SDS011;37777;53.066;21.638;2022-08-19T05:18:15;30.58;;;14.68;;
51692;SDS011;37777;53.066;21.638;2022-08-19T05:25:38;22.35;;;13.18;;
51692;SDS011;37777;53.066;21.638;2022-08-19T05:32:42;20.50;;;13.18;;
51692;SDS011;37777;53.066;21.638;2022-08-19T05:39:47;20.35;;;11.68;;
51692;SDS011;37777;53.066;21.638;2022-08-19T05:46:52;15.80;;;11.27;;
51692;SDS011;37777;53.066;21.638;2022-08-19T05:53:57;20.80;;;10.70;;
51692;SDS011;37777;53.066;21.638;2022-08-19T06:00:59;19.05;;;10.52;;
51692;SDS011;37777;53.066;21.638;2022-08-19T06:08:06;23.97;;;10.03;;
51692;SDS011;37777;53.066;21.638;2022-08-19T06:15:10;14.60;;;8.20;;
51692;SDS011;37777;53.066;21.638;2022-08-19T06:22:12;17.38;;;8.32;;
51692;SDS011;37777;53.066;21.638;2022-08-19T06:29:15;18.70;;;7.57;;
51692;SDS011;37777;53.066;21.638;2022-08-19T06:36:27;17.20;;;7.80;;
51692;SDS011;37777;53.066;21.638;2022-08-19T06:43:31;13.13;;;7.68;;
51692;SDS011;37777;53.066;21.638;2022-08-19T06:50:33;13.25;;;6.88;;
51692;SDS011;37777;53.066;21.638;2022-08-19T06:57:39;12.55;;;6.70;;
51692;SDS011;37777;53.066;21.638;2022-08-19T07:04:41;10.95;;;6.80;;
51692;SDS011;37777;53.066;21.638;2022-08-19T07:11:47;11.25;;;7.15;;
51692;SDS011;37777;53.066;21.638;2022-08-19T07:18:49;13.73;;;6.70;;
51692;SDS011;37777;53.066;21.638;2022-08-19T07:25:51;12.98;;;6.75;;
51692;SDS011;37777;53.066;21.638;2022-08-19T07:32:55;19.13;;;6.00;;
51692;SDS011;37777;53.066;21.638;2022-08-19T07:39:58;10.10;;;5.97;;
51692;SDS011;37777;53.066;21.638;2022-08-19T07:47:00;14.95;;;6.28;;
51692;SDS011;37777;53.066;21.638;2022-08-19T07:54:02;13.48;;;6.28;;
51692;SDS011;37777;53.066;21.638;2022-08-19T08:01:06;14.63;;;6.70;;
51692;SDS011;37777;53.066;21.638;2022-08-19T08:08:08;14.52;;;6.75;;
51692;SDS011;37777;53.066;21.638;2022-08-19T08:15:28;13.80;;;6.70;;
51692;SDS011;37777;53.066;21.638;2022-08-19T08:22:30;11.65;;;6.07;;
51692;SDS011;37777;53.066;21.638;2022-08-19T08:29:50;16.75;;;6.18;;
51692;SDS011;37777;53.066;21.638;2022-08-19T08:36:52;10.60;;;6.13;;
51692;SDS011;37777;53.066;21.638;2022-08-19T08:43:54;10.25;;;5.70;;
51692;SDS011;37777;53.066;21.638;2022-08-19T08:50:56;12.60;;;6.28;;
51692;SDS011;37777;53.066;21.638;2022-08-19T08:58:04;14.57;;;5.20;;
51692;SDS011;37777;53.066;21.638;2022-08-19T09:05:07;11.98;;;5.10;;
51692;SDS011;37777;53.066;21.638;2022-08-19T09:19:55;15.68;;;5.18;;
51692;SDS011;37777;53.066;21.638;2022-08-19T09:26:57;9.27;;;4.70;;
51692;SDS011;37777;53.066;21.638;2022-08-19T09:33:59;5.32;;;4.22;;
51692;SDS011;37777;53.066;21.638;2022-08-19T09:41:02;9.82;;;4.93;;
51692;SDS011;37777;53.066;21.638;2022-08-19T09:48:07;15.05;;;5.18;;
51692;SDS011;37777;53.066;21.638;2022-08-19T09:55:10;9.50;;;4.45;;
51692;SDS011;37777;53.066;21.638;2022-08-19T10:02:14;9.15;;;4.25;;
51692;SDS011;37777;53.066;21.638;2022-08-19T10:09:22;9.57;;;4.53;;
51692;SDS011;37777;53.066;21.638;2022-08-19T10:16:36;11.18;;;4.35;;
51692;SDS011;37777;53.066;21.638;2022-08-19T10:23:40;13.45;;;5.03;;
51692;SDS011;37777;53.066;21.638;2022-08-19T10:30:46;13.73;;;4.70;;
51692;SDS011;37777;53.066;21.638;2022-08-19T10:37:49;12.65;;;5.45;;
51692;SDS011;37777;53.066;21.638;2022-08-19T10:45:00;9.88;;;4.03;;
51692;SDS011;37777;53.066;21.638;2022-08-19T10:52:05;6.97;;;3.70;;
51692;SDS011;37777;53.066;21.638;2022-08-19T10:59:33;9.85;;;4.00;;
51692;SDS011;37777;53.066;21.638;2022-08-19T11:06:40;15.02;;;4.25;;
51692;SDS011;37777;53.066;21.638;2022-08-19T11:13:43;9.00;;;3.70;;
51692;SDS011;37777;53.066;21.638;2022-08-19T11:20:45;8.10;;;3.92;;
51692;SDS011;37777;53.066;21.638;2022-08-19T11:27:47;6.65;;;3.70;;
51692;SDS011;37777;53.066;21.638;2022-08-19T11:34:52;7.82;;;4.18;;
51692;SDS011;37777;53.066;21.638;2022-08-19T11:41:54;8.05;;;4.32;;
51692;SDS011;37777;53.066;21.638;2022-08-19T11:48:56;7.05;;;3.90;;
51692;SDS011;37777;53.066;21.638;2022-08-19T11:56:00;12.15;;;3.63;;
51692;SDS011;37777;53.066;21.638;2022-08-19T12:03:02;9.82;;;3.75;;
51692;SDS011;37777;53.066;21.638;2022-08-19T12:10:04;15.10;;;3.78;;
51692;SDS011;37777;53.066;21.638;2022-08-19T12:17:06;11.88;;;3.67;;
51692;SDS011;37777;53.066;21.638;2022-08-19T12:24:10;10.07;;;3.72;;
51692;SDS011;37777;53.066;21.638;2022-08-19T12:31:12;9.20;;;3.20;;
51692;SDS011;37777;53.066;21.638;2022-08-19T12:38:14;8.93;;;3.78;;
51692;SDS011;37777;53.066;21.638;2022-08-19T12:45:16;10.20;;;3.63;;
51692;SDS011;37777;53.066;21.638;2022-08-19T12:52:18;9.40;;;3.53;;
51692;SDS011;37777;53.066;21.638;2022-08-19T12:59:23;13.95;;;3.67;;
51692;SDS011;37777;53.066;21.638;2022-08-19T13:06:25;11.98;;;3.53;;
51692;SDS011;37777;53.066;21.638;2022-08-19T13:13:27;8.75;;;3.30;;
51692;SDS011;37777;53.066;21.638;2022-08-19T13:20:29;20.88;;;3.90;;
51692;SDS011;37777;53.066;21.638;2022-08-19T13:27:31;10.52;;;3.42;;
51692;SDS011;37777;53.066;21.638;2022-08-19T13:34:34;8.27;;;3.38;;
51692;SDS011;37777;53.066;21.638;2022-08-19T13:41:36;13.77;;;3.72;;
51692;SDS011;37777;53.066;21.638;2022-08-19T13:48:38;7.68;;;3.30;;
51692;SDS011;37777;53.066;21.638;2022-08-19T13:55:41;9.35;;;3.13;;
51692;SDS011;37777;53.066;21.638;2022-08-19T14:02:44;12.40;;;3.47;;
51692;SDS011;37777;53.066;21.638;2022-08-19T14:09:46;10.43;;;3.60;;
51692;SDS011;37777;53.066;21.638;2022-08-19T14:16:49;10.90;;;3.15;;
51692;SDS011;37777;53.066;21.638;2022-08-19T14:23:51;12.93;;;3.88;;
51692;SDS011;37777;53.066;21.638;2022-08-19T14:30:53;10.88;;;3.40;;
51692;SDS011;37777;53.066;21.638;2022-08-19T14:37:56;11.43;;;3.45;;
51692;SDS011;37777;53.066;21.638;2022-08-19T14:44:59;10.90;;;3.35;;
51692;SDS011;37777;53.066;21.638;2022-08-19T14:52:02;9.50;;;3.03;;
51692;SDS011;37777;53.066;21.638;2022-08-19T14:59:05;10.27;;;3.50;;
51692;SDS011;37777;53.066;21.638;2022-08-19T15:06:08;13.68;;;3.20;;
51692;SDS011;37777;53.066;21.638;2022-08-19T15:13:13;8.93;;;3.05;;
51692;SDS011;37777;53.066;21.638;2022-08-19T15:20:17;10.82;;;3.35;;
51692;SDS011;37777;53.066;21.638;2022-08-19T15:27:19;7.90;;;3.45;;
51692;SDS011;37777;53.066;21.638;2022-08-19T15:34:22;5.40;;;2.97;;
51692;SDS011;37777;53.066;21.638;2022-08-19T15:41:28;11.15;;;3.35;;
51692;SDS011;37777;53.066;21.638;2022-08-19T15:48:31;8.90;;;3.65;;
51692;SDS011;37777;53.066;21.638;2022-08-19T15:55:33;10.82;;;3.20;;
51692;SDS011;37777;53.066;21.638;2022-08-19T16:02:35;10.50;;;3.10;;
51692;SDS011;37777;53.066;21.638;2022-08-19T16:09:56;10.85;;;3.47;;
51692;SDS011;37777;53.066;21.638;2022-08-19T16:17:17;9.30;;;3.25;;
51692;SDS011;37777;53.066;21.638;2022-08-19T16:24:20;11.05;;;3.35;;
51692;SDS011;37777;53.066;21.638;2022-08-19T16:31:23;11.15;;;3.10;;
51692;SDS011;37777;53.066;21.638;2022-08-19T16:38:25;7.50;;;3.28;;
51692;SDS011;37777;53.066;21.638;2022-08-19T16:45:28;6.60;;;3.33;;
51692;SDS011;37777;53.066;21.638;2022-08-19T16:52:30;7.55;;;3.05;;
51692;SDS011;37777;53.066;21.638;2022-08-19T16:59:35;6.00;;;3.20;;
51692;SDS011;37777;53.066;21.638;2022-08-19T17:06:42;14.75;;;3.50;;
51692;SDS011;37777;53.066;21.638;2022-08-19T17:13:44;11.55;;;2.95;;
51692;SDS011;37777;53.066;21.638;2022-08-19T17:20:49;29.77;;;4.60;;
51692;SDS011;37777;53.066;21.638;2022-08-19T17:27:56;10.15;;;2.83;;
51692;SDS011;37777;53.066;21.638;2022-08-19T17:34:58;23.58;;;3.50;;
51692;SDS011;37777;53.066;21.638;2022-08-19T17:42:00;8.90;;;3.08;;
51692;SDS011;37777;53.066;21.638;2022-08-19T17:49:06;10.77;;;2.83;;
51692;SDS011;37777;53.066;21.638;2022-08-19T17:56:08;18.30;;;3.40;;
51692;SDS011;37777;53.066;21.638;2022-08-19T18:03:11;9.48;;;3.00;;
51692;SDS011;37777;53.066;21.638;2022-08-19T18:10:14;13.82;;;3.45;;
51692;SDS011;37777;53.066;21.638;2022-08-19T18:17:16;12.02;;;3.65;;
51692;SDS011;37777;53.066;21.638;2022-08-19T18:24:19;12.90;;;3.38;;
51692;SDS011;37777;53.066;21.638;2022-08-19T18:31:21;13.15;;;3.25;;
51692;SDS011;37777;53.066;21.638;2022-08-19T18:38:25;11.57;;;2.85;;
51692;SDS011;37777;53.066;21.638;2022-08-19T18:45:46;12.48;;;3.05;;
51692;SDS011;37777;53.066;21.638;2022-08-19T18:53:07;20.23;;;3.58;;
51692;SDS011;37777;53.066;21.638;2022-08-19T19:00:09;8.98;;;3.08;;
51692;SDS011;37777;53.066;21.638;2022-08-19T19:07:11;21.40;;;3.10;;
51692;SDS011;37777;53.066;21.638;2022-08-19T19:14:19;13.23;;;3.55;;
51692;SDS011;37777;53.066;21.638;2022-08-19T19:21:43;12.02;;;3.33;;
51692;SDS011;37777;53.066;21.638;2022-08-19T19:28:48;11.63;;;3.50;;
51692;SDS011;37777;53.066;21.638;2022-08-19T19:35:50;19.40;;;4.38;;
51692;SDS011;37777;53.066;21.638;2022-08-19T19:42:52;11.52;;;3.63;;
51692;SDS011;37777;53.066;21.638;2022-08-19T19:49:56;12.40;;;3.42;;
51692;SDS011;37777;53.066;21.638;2022-08-19T19:57:15;11.48;;;3.90;;
51692;SDS011;37777;53.066;21.638;2022-08-19T20:04:18;22.92;;;3.80;;
51692;SDS011;37777;53.066;21.638;2022-08-19T20:12:03;8.80;;;4.07;;
51692;SDS011;37777;53.066;21.638;2022-08-19T20:18:45;11.23;;;3.45;;
51692;SDS011;37777;53.066;21.638;2022-08-19T20:25:49;14.35;;;3.90;;
51692;SDS011;37777;53.066;21.638;2022-08-19T20:32:51;14.07;;;4.00;;
51692;SDS011;37777;53.066;21.638;2022-08-19T20:39:54;15.57;;;3.78;;
51692;SDS011;37777;53.066;21.638;2022-08-19T20:46:55;12.10;;;3.75;;
51692;SDS011;37777;53.066;21.638;2022-08-19T20:54:03;5.72;;;3.70;;
51692;SDS011;37777;53.066;21.638;2022-08-19T21:01:06;22.73;;;4.38;;
51692;SDS011;37777;53.066;21.638;2022-08-19T21:08:11;8.25;;;3.63;;
51692;SDS011;37777;53.066;21.638;2022-08-19T21:15:14;17.63;;;4.25;;
51692;SDS011;37777;53.066;21.638;2022-08-19T21:22:16;19.70;;;4.15;;
51692;SDS011;37777;53.066;21.638;2022-08-19T21:29:19;9.02;;;4.07;;
51692;SDS011;37777;53.066;21.638;2022-08-19T21:36:20;8.82;;;3.95;;
51692;SDS011;37777;53.066;21.638;2022-08-19T21:43:23;14.82;;;4.15;;
51692;SDS011;37777;53.066;21.638;2022-08-19T21:50:25;10.77;;;3.83;;
51692;SDS011;37777;53.066;21.638;2022-08-19T21:57:29;12.20;;;4.15;;
51692;SDS011;37777;53.066;21.638;2022-08-19T22:04:31;7.25;;;3.75;;
51692;SDS011;37777;53.066;21.638;2022-08-19T22:11:33;10.85;;;3.92;;
51692;SDS011;37777;53.066;21.638;2022-08-19T22:18:35;11.57;;;4.05;;
51692;SDS011;37777;53.066;21.638;2022-08-19T22:25:39;11.20;;;4.05;;
51692;SDS011;37777;53.066;21.638;2022-08-19T22:32:44;9.65;;;4.18;;
51692;SDS011;37777;53.066;21.638;2022-08-19T22:39:47;11.98;;;4.00;;
51692;SDS011;37777;53.066;21.638;2022-08-19T22:46:49;8.57;;;3.80;;
51692;SDS011;37777;53.066;21.638;2022-08-19T22:53:50;8.88;;;4.45;;
51692;SDS011;37777;53.066;21.638;2022-08-19T23:00:52;12.02;;;4.88;;
51692;SDS011;37777;53.066;21.638;2022-08-19T23:07:55;10.43;;;4.50;;
51692;SDS011;37777;53.066;21.638;2022-08-19T23:15:12;15.20;;;5.45;;
51692;SDS011;37777;53.066;21.638;2022-08-19T23:22:15;10.00;;;4.78;;
51692;SDS011;37777;53.066;21.638;2022-08-19T23:29:17;18.95;;;4.82;;
51692;SDS011;37777;53.066;21.638;2022-08-19T23:36:37;13.10;;;4.72;;
51692;SDS011;37777;53.066;21.638;2022-08-19T23:43:40;10.93;;;4.50;;
51692;SDS011;37777;53.066;21.638;2022-08-19T23:50:44;9.45;;;4.68;;
51692;SDS011;37777;53.066;21.638;2022-08-19T23:57:46;15.20;;;4.95;;
